Enugu, Nigeria
Current Conditions -  °F | °C
As of 3:00 PM on Monday 22 Dec 2014 (Local Time) from FGSL Reporting Station
Few Clouds Few Clouds  
Wind Chill: 86°   Ceiling: Unl
Heat Index: 93°   Visibility: 6mi
Dew Point: 73°   Wind: 9mph
Humidity: 66%   Direction: 260°W
Pressure: 29.83"   Gusts: NA
Location:  6.33°N, 7.5°E
Report Text: FGSL 221400Z 26008KT 220V290 9999 FEW010 30/23 Q1010 NOSIG
Loading
Personal Weather Stations






























Interactive Weather Map New forecast layout! Learn more

10-Day Weather Forecast

Advertisements
Track Severe Weather on mobile